Time;durP1;ratioP1;P1;durP2;ratioP2;P2;SDS_P1;SDS_P2;PMS_P1;PMS_P2;Temp;Humidity;BMP_temperature;BMP_pressure;BME280_temperature;BME280_humidity;BME280_pressure;Samples;Min_cycle;Max_cycle;Signal;HPM_P1;HPM_P2
2022/10/18 00:00:14;;;;;;;8.33;7.53;;;;;;;10.94;100.00;-3421.06;5133513;27;20183;-58
2022/10/18 00:02:41;;;;;;;7.40;6.70;;;;;;;10.99;100.00;-5975.34;5133991;27;20584;-59
2022/10/18 00:05:09;;;;;;;7.00;6.40;;;;;;;11.15;100.00;-8209.91;5133907;27;20186;-59
2022/10/18 00:07:36;;;;;;;7.20;6.60;;;;;;;11.23;100.00;-9167.56;5133914;27;20218;-59
2022/10/18 00:10:05;;;;;;;7.17;6.53;;;;;;;11.40;100.00;-9488.28;5133734;27;20202;-59
2022/10/18 00:12:34;;;;;;;6.53;6.20;;;;;;;11.50;100.00;-8531.84;5132823;27;20202;-59
2022/10/18 00:15:01;;;;;;;6.53;6.20;;;;;;;11.51;100.00;-7893.59;5133296;27;20194;-59
2022/10/18 00:17:27;;;;;;;6.40;5.47;;;;;;;11.69;100.00;-6617.38;5133676;27;20633;-60
2022/10/18 00:19:54;;;;;;;6.47;6.03;;;;;;;11.76;100.00;-5019.94;5133585;27;20657;-59
2022/10/18 00:22:21;;;;;;;6.40;5.90;;;;;;;11.75;100.00;-3101.53;5133338;27;20234;-59
2022/10/18 00:24:48;;;;;;;6.13;5.73;;;;;;;11.76;100.00;-1501.97;5133161;27;20221;-59
2022/10/18 00:27:16;;;;;;;6.33;6.03;;;;;;;11.56;100.00;-1502.53;5133127;27;20191;-60
2022/10/18 00:29:43;;;;;;;6.30;6.00;;;;;;;11.75;100.00;-862.00;5133037;27;20221;-65
2022/10/18 00:32:11;;;;;;;6.50;6.00;;;;;;;11.76;100.00;-541.88;5133120;27;20191;-60
2022/10/18 00:34:39;;;;;;;6.43;5.93;;;;;;;11.85;100.00;419.03;5133056;27;20183;-59
2022/10/18 00:37:06;;;;;;;7.47;6.83;;;;;;;11.73;100.00;1699.25;5133417;27;20576;-59
2022/10/18 00:39:33;;;;;;;7.23;6.83;;;;;;;11.72;100.00;2980.53;5132498;27;20187;-60
2022/10/18 00:42:00;;;;;;;7.50;6.40;;;;;;;11.87;100.00;3623.06;5132772;27;20189;-58
2022/10/18 00:45:05;;;;;;;8.20;6.77;;;;;;;11.93;100.00;4585.56;5132896;27;20193;-59
2022/10/18 00:47:34;;;;;;;6.93;6.30;;;;;;;11.99;100.00;6190.13;5132870;27;20277;-60
2022/10/18 00:50:04;;;;;;;6.53;6.23;;;;;;;11.98;100.00;6831.81;5133013;27;20238;-59
2022/10/18 00:52:35;;;;;;;6.70;6.10;;;;;;;11.83;100.00;6829.44;5132944;27;20198;-59
2022/10/18 00:55:03;;;;;;;7.37;6.90;;;;;;;11.97;100.00;6831.66;5133227;27;20693;-58
2022/10/18 00:57:30;;;;;;;6.83;6.53;;;;;;;11.99;100.00;7152.91;5132751;28;20179;-59
2022/10/18 00:59:57;;;;;;;7.40;6.90;;;;;;;11.99;100.00;6511.06;5133251;28;20638;-59
2022/10/18 01:02:26;;;;;;;6.80;6.23;;;;;;;12.03;100.00;6832.56;5132704;28;20197;-63
2022/10/18 01:04:53;;;;;;;7.30;6.60;;;;;;;12.02;100.00;8437.44;5132989;28;20198;-58
2022/10/18 01:07:34;;;;;;;8.37;7.50;;;;;;;12.05;100.00;12615.13;5132579;28;20190;-58
2022/10/18 01:10:15;;;;;;;6.47;6.10;;;;;;;11.98;100.00;13899.47;5132755;28;20203;-59
2022/10/18 01:12:52;;;;;;;8.63;8.10;;;;;;;11.92;100.00;16471.19;5132907;28;20561;-58
2022/10/18 01:15:26;;;;;;;8.80;8.20;;;;;;;11.75;100.00;15500.84;5133097;28;20720;-58
2022/10/18 01:18:01;;;;;;;8.73;8.23;;;;;;;11.48;100.00;12600.41;5132663;28;20182;-59
2022/10/18 01:20:48;;;;;;;8.93;8.33;;;;;;;11.28;100.00;9065.16;5132669;28;20225;-59
2022/10/18 01:23:41;;;;;;;8.60;8.00;;;;;;;11.31;100.00;6179.84;5132524;28;20269;-59
2022/10/18 01:26:21;;;;;;;9.93;9.10;;;;;;;11.35;100.00;3617.31;5132787;28;20189;-58
2022/10/18 01:28:59;;;;;;;9.60;8.80;;;;;;;11.20;100.00;1695.03;5132578;28;20213;-59
2022/10/18 01:31:33;;;;;;;9.07;8.67;;;;;;;11.10;100.00;1694.22;5132891;28;20576;-60
2022/10/18 01:34:03;;;;;;;10.37;9.60;;;;;;;11.05;100.00;2653.78;5132506;28;20183;-58
2022/10/18 01:36:34;;;;;;;10.27;9.33;;;;;;;11.09;100.00;3294.31;5133006;28;20348;-59
2022/10/18 01:39:07;;;;;;;9.97;9.00;;;;;;;10.99;100.00;3613.31;5132296;28;20179;-58
2022/10/18 01:41:37;;;;;;;10.40;9.50;;;;;;;10.87;100.00;2332.19;5132663;28;20205;-59
2022/10/18 01:44:09;;;;;;;9.70;9.13;;;;;;;10.89;100.00;733.16;5132263;28;20193;-59
2022/10/18 01:46:39;;;;;;;9.17;8.43;;;;;;;10.89;100.00;-225.97;5132658;28;20193;-59
2022/10/18 01:49:07;;;;;;;9.70;9.10;;;;;;;10.82;100.00;-865.50;5132612;28;20206;-58
2022/10/18 01:51:34;;;;;;;9.80;8.47;;;;;;;10.77;100.00;-1504.72;5133707;27;20183;-59
2022/10/18 01:54:01;;;;;;;9.17;8.43;;;;;;;10.73;100.00;-1824.25;5136542;27;20182;-59
2022/10/18 01:56:42;;;;;;;9.20;8.60;;;;;;;10.57;100.00;-547.00;5136410;27;20179;-59
2022/10/18 01:59:22;;;;;;;9.77;8.90;;;;;;;10.48;100.00;1050.16;5135963;27;20183;-59
2022/10/18 02:01:58;;;;;;;11.33;9.57;;;;;;;10.27;100.00;90.44;5136354;27;20215;-59
2022/10/18 02:04:34;;;;;;;12.67;9.80;;;;;;;10.34;100.00;-1505.88;5136166;27;20680;-59
2022/10/18 02:07:07;;;;;;;11.27;10.23;;;;;;;10.34;100.00;-3420.84;5136152;27;20186;-60
2022/10/18 02:09:41;;;;;;;11.60;10.60;;;;;;;10.31;100.00;-3739.88;5135735;27;20209;-60
2022/10/18 02:12:12;;;;;;;10.97;10.13;;;;;;;10.36;100.00;-4696.94;5136085;27;20556;-58
2022/10/18 02:14:43;;;;;;;11.57;10.40;;;;;;;10.24;100.00;-6290.69;5118035;27;20706;-59
2022/10/18 02:17:14;;;;;;;11.50;9.97;;;;;;;10.17;100.00;-7246.31;5136425;27;20688;-59
2022/10/18 02:19:46;;;;;;;12.47;11.37;;;;;;;10.18;100.00;-7883.56;5117321;27;20186;-59
2022/10/18 02:22:14;;;;;;;12.53;11.47;;;;;;;10.09;100.00;-10429.94;5135386;27;20244;-64
2022/10/18 02:24:45;;;;;;;14.07;12.53;;;;;;;9.91;100.00;-12336.22;5135518;27;20186;-59
2022/10/18 02:27:12;;;;;;;12.17;11.47;;;;;;;9.83;100.00;-14877.53;5135539;27;20635;-59
2022/10/18 02:29:40;;;;;;;12.73;11.73;;;;;;;9.84;100.00;-17100.78;5135669;27;20664;-59
2022/10/18 02:32:12;;;;;;;13.23;12.33;;;;;;;9.78;100.00;-17734.25;5135591;27;20587;-58
2022/10/18 02:34:44;;;;;;;14.53;13.23;;;;;;;9.82;100.00;-18052.59;5135269;27;20269;-58
2022/10/18 02:37:15;;;;;;;13.03;12.03;;;;;;;9.79;100.00;-18052.00;5135491;27;20672;-58
2022/10/18 02:39:46;;;;;;;13.37;12.10;;;;;;;9.72;100.00;-18050.19;5135289;27;20262;-59
2022/10/18 02:42:14;;;;;;;13.13;12.17;;;;;;;9.58;100.00;-18047.03;5135461;27;20183;-59
2022/10/18 02:44:41;;;;;;;12.47;11.47;;;;;;;9.83;100.00;-18052.97;5135460;27;20183;-59
2022/10/18 02:47:10;;;;;;;13.07;12.00;;;;;;;9.74;100.00;-18050.66;5135010;27;20200;-59
2022/10/18 02:49:37;;;;;;;11.47;10.57;;;;;;;9.80;100.00;-18054.09;5134859;27;20264;-59
2022/10/18 02:52:06;;;;;;;12.87;11.80;;;;;;;9.87;100.00;-18055.78;5135016;27;20183;-58
2022/10/18 02:54:32;;;;;;;13.20;11.63;;;;;;;9.88;100.00;-18055.91;5135275;27;20641;-58
2022/10/18 02:56:59;;;;;;;13.47;12.40;;;;;;;9.88;100.00;-18055.91;5135130;27;20182;-59
2022/10/18 02:59:26;;;;;;;14.20;11.87;;;;;;;9.81;100.00;-18054.34;5134840;27;20187;-59
2022/10/18 03:01:53;;;;;;;14.03;12.77;;;;;;;9.75;100.00;-18052.88;5135063;27;20742;-59
2022/10/18 03:04:20;;;;;;;15.70;12.93;;;;;;;9.78;100.00;-18051.63;5134093;27;20556;-60
2022/10/18 03:06:47;;;;;;;12.53;11.07;;;;;;;9.81;100.00;-17734.97;5134675;27;20190;-60
2022/10/18 03:09:15;;;;;;;11.17;10.47;;;;;;;9.87;100.00;-18053.91;5134515;27;20207;-59
2022/10/18 03:11:42;;;;;;;18.27;12.53;;;;;;;9.95;100.00;-18057.59;5135072;27;20609;-59
2022/10/18 03:14:09;;;;;;;12.53;11.43;;;;;;;9.84;100.00;-18053.19;5134583;27;20273;-58
2022/10/18 03:16:36;;;;;;;12.77;11.47;;;;;;;9.93;100.00;-17737.81;5134482;27;20179;-58
2022/10/18 03:19:03;;;;;;;16.47;12.30;;;;;;;9.94;100.00;-17738.03;5134766;27;20625;-59
2022/10/18 03:21:30;;;;;;;13.50;12.40;;;;;;;9.94;100.00;-18055.50;5134368;27;20238;-59
2022/10/18 03:23:57;;;;;;;14.90;13.40;;;;;;;9.91;100.00;-18056.63;5134326;27;20282;-58
2022/10/18 03:26:26;;;;;;;15.53;14.07;;;;;;;9.88;100.00;-18056.03;5134379;27;20183;-60
2022/10/18 03:28:53;;;;;;;15.60;13.47;;;;;;;9.90;100.00;-18056.50;5134547;27;20190;-59
2022/10/18 03:31:20;;;;;;;14.67;13.23;;;;;;;9.94;100.00;-18057.47;5134393;27;20203;-58
2022/10/18 03:33:47;;;;;;;15.90;13.67;;;;;;;9.92;100.00;-18055.13;5134316;27;20205;-60
2022/10/18 03:36:14;;;;;;;14.23;12.83;;;;;;;9.87;100.00;-18053.81;5134401;27;20644;-58
2022/10/18 03:38:41;;;;;;;15.73;13.20;;;;;;;9.74;100.00;-18052.63;5134559;27;20261;-59
2022/10/18 03:41:08;;;;;;;15.63;13.10;;;;;;;9.82;100.00;-18054.44;5133899;27;20190;-58
2022/10/18 03:43:38;;;;;;;15.40;14.00;;;;;;;9.79;100.00;-18053.72;5134114;27;20193;-59
2022/10/18 03:46:05;;;;;;;16.40;14.80;;;;;;;9.92;100.00;-18055.00;5133965;27;20193;-58
2022/10/18 03:48:32;;;;;;;21.53;15.27;;;;;;;9.90;100.00;-17737.22;5134039;27;20624;-59
2022/10/18 03:50:59;;;;;;;17.60;16.07;;;;;;;9.85;100.00;-17735.91;5133847;27;20213;-60
2022/10/18 03:53:26;;;;;;;17.97;15.90;;;;;;;9.87;100.00;-18053.91;5134060;27;20273;-61
2022/10/18 03:55:54;;;;;;;17.30;15.70;;;;;;;9.85;100.00;-18053.44;5133650;27;20222;-59
2022/10/18 03:58:21;;;;;;;23.37;16.27;;;;;;;9.85;100.00;-18053.31;5134004;27;20183;-59
2022/10/18 04:00:51;;;;;;;16.97;15.20;;;;;;;9.66;100.00;-17096.84;5133552;27;20183;-60
2022/10/18 04:03:18;;;;;;;15.87;14.27;;;;;;;9.51;100.00;-16776.22;5133577;27;20192;-58
2022/10/18 04:05:46;;;;;;;15.03;13.90;;;;;;;9.66;100.00;-17096.84;5133855;27;20581;-59
2022/10/18 04:08:13;;;;;;;21.30;14.77;;;;;;;9.52;100.00;-17093.66;5133471;27;20182;-59
2022/10/18 04:10:41;;;;;;;19.73;13.57;;;;;;;9.52;100.00;-17411.06;5133375;27;20203;-59
2022/10/18 04:13:08;;;;;;;19.43;14.77;;;;;;;9.46;100.00;-18044.13;5133722;27;20213;-59
2022/10/18 04:15:35;;;;;;;16.33;14.63;;;;;;;9.39;100.00;-18044.16;5133156;27;20179;-59
2022/10/18 04:18:03;;;;;;;19.40;15.33;;;;;;;9.38;100.00;-18044.03;5133946;27;20527;-60
2022/10/18 04:20:31;;;;;;;22.50;14.43;;;;;;;9.43;100.00;-18045.25;5133436;27;20229;-59
2022/10/18 04:22:58;;;;;;;20.47;15.07;;;;;;;9.47;100.00;-18046.09;5133800;27;20213;-59
2022/10/18 04:25:25;;;;;;;25.70;16.07;;;;;;;9.38;100.00;-18044.03;5133518;27;20571;-59
2022/10/18 04:27:52;;;;;;;18.97;16.83;;;;;;;9.50;100.00;-18046.84;5133539;27;20191;-58
2022/10/18 04:30:19;;;;;;;26.33;15.07;;;;;;;9.69;100.00;-18051.31;5133287;27;20577;-58
2022/10/18 04:32:46;;;;;;;23.83;15.93;;;;;;;9.79;100.00;-18053.84;5133490;27;20193;-59
2022/10/18 04:35:14;;;;;;;22.10;16.23;;;;;;;9.79;100.00;-18053.72;5133077;27;20182;-59
2022/10/18 04:37:41;;;;;;;23.77;14.90;;;;;;;9.85;100.00;-18055.19;5133154;27;20183;-59
2022/10/18 04:40:11;;;;;;;19.57;14.40;;;;;;;9.86;100.00;-18055.41;5133235;27;20178;-59
2022/10/18 04:42:37;;;;;;;22.00;14.10;;;;;;;9.76;100.00;-18053.00;5133641;27;20651;-59
2022/10/18 04:45:05;;;;;;;28.90;15.20;;;;;;;9.85;100.00;-18055.28;5133084;27;20214;-59
2022/10/18 04:47:32;;;;;;;31.90;15.57;;;;;;;9.83;100.00;-18054.69;5133027;27;20182;-59
2022/10/18 04:49:59;;;;;;;22.13;15.03;;;;;;;9.87;100.00;-18055.66;5133116;27;20229;-59
2022/10/18 04:52:27;;;;;;;21.47;16.40;;;;;;;9.86;100.00;-18055.53;5133150;27;20266;-59
2022/10/18 04:54:54;;;;;;;20.03;15.87;;;;;;;9.81;100.00;-18054.22;5114991;28;20281;-59
2022/10/18 04:57:21;;;;;;;32.70;17.63;;;;;;;9.90;100.00;-18056.38;5132861;28;20186;-58
2022/10/18 04:59:48;;;;;;;33.10;16.53;;;;;;;10.04;100.00;-18059.91;5133090;28;20187;-61
2022/10/18 05:02:15;;;;;;;26.83;17.30;;;;;;;10.21;100.00;-18063.88;5132829;28;20209;-59
2022/10/18 05:04:42;;;;;;;35.70;20.23;;;;;;;10.51;100.00;-18071.03;5132884;28;20187;-59
2022/10/18 05:07:09;;;;;;;25.50;15.73;;;;;;;10.60;100.00;-18073.06;5132520;28;20197;-59
2022/10/18 05:09:37;;;;;;;16.53;14.93;;;;;;;10.82;100.00;-18078.50;5132580;28;20186;-58
2022/10/18 05:12:04;;;;;;;20.67;15.53;;;;;;;11.19;100.00;-18087.19;5128922;28;20194;-59
2022/10/18 05:14:31;;;;;;;17.53;14.97;;;;;;;11.50;100.00;-17774.47;5132666;28;20189;-59
2022/10/18 05:16:58;;;;;;;16.50;13.40;;;;;;;11.80;100.00;-12045.06;5114287;28;20202;-59
2022/10/18 05:19:25;;;;;;;18.83;12.93;;;;;;;11.90;100.00;-5659.72;5132692;28;20284;-61
2022/10/18 05:21:52;;;;;;;17.87;13.40;;;;;;;12.19;100.00;-860.31;5132577;28;20222;-60
2022/10/18 05:24:19;;;;;;;28.63;14.90;;;;;;;12.36;100.00;4911.94;5132142;28;20187;-60
2022/10/18 05:26:47;;;;;;;29.97;13.27;;;;;;;12.56;100.00;9733.44;5134579;27;20561;-59
2022/10/18 05:29:14;;;;;;;18.37;13.27;;;;;;;12.46;100.00;12625.47;5136495;27;20189;-60
2022/10/18 05:31:41;;;;;;;19.70;14.20;;;;;;;12.61;100.00;14238.75;5136392;27;20210;-60
2022/10/18 05:34:08;;;;;;;16.77;12.50;;;;;;;12.85;100.00;14889.69;5136666;27;20209;-60
2022/10/18 05:36:35;;;;;;;20.33;12.93;;;;;;;13.27;100.00;16837.03;5136642;27;20183;-60
2022/10/18 05:39:04;;;;;;;21.27;13.27;;;;;;;13.70;100.00;31732.16;5136611;27;20186;-60
2022/10/18 05:41:31;;;;;;;18.90;13.50;;;;;;;14.34;100.00;51625.13;5136464;27;20206;-60
2022/10/18 05:44:02;;;;;;;18.33;13.53;;;;;;;14.37;100.00;65368.72;5136210;27;20183;-63
2022/10/18 05:46:29;;;;;;;14.50;13.07;;;;;;;15.06;100.00;69385.84;5136071;27;20187;-62
2022/10/18 05:48:56;;;;;;;15.67;12.73;;;;;;;15.54;100.00;116123.19;5135871;27;20206;-61
2022/10/18 05:51:24;;;;;;;20.37;13.30;;;;;;;15.63;100.00;148465.38;5136078;27;20203;-62
2022/10/18 05:53:51;;;;;;;21.03;13.77;;;;;;;16.04;100.00;150067.91;5136328;27;20209;-60
2022/10/18 05:56:18;;;;;;;21.93;13.33;;;;;;;15.83;100.00;150015.81;5135919;27;20296;-59
2022/10/18 05:58:50;;;;;;;23.37;15.57;;;;;;;15.59;100.00;149956.19;5135952;27;20270;-59
2022/10/18 06:01:19;;;;;;;23.30;14.97;;;;;;;16.54;100.00;150193.59;5135778;27;20270;-61
2022/10/18 06:03:46;;;;;;;29.40;14.77;;;;;;;16.94;100.00;150295.22;5135865;27;20175;-62
2022/10/18 06:06:14;;;;;;;20.83;14.90;;;;;;;16.88;100.00;150281.28;5135529;27;20183;-61
2022/10/18 06:08:42;;;;;;;22.77;14.97;;;;;;;16.95;100.00;150296.50;5135688;27;20186;-60
2022/10/18 06:11:12;;;;;;;25.77;14.67;;;;;;;17.44;100.00;150421.00;5117329;27;20217;-61
2022/10/18 06:13:43;;;;;;;14.87;13.50;;;;;;;17.78;100.00;150507.47;5135221;27;20225;-62
2022/10/18 06:16:10;;;;;;;25.77;15.63;;;;;;;17.87;100.00;150527.78;5135163;27;20222;-61
2022/10/18 06:18:39;;;;;;;17.23;14.37;;;;;;;17.61;100.00;150464.25;5135578;27;20270;-61
2022/10/18 06:21:07;;;;;;;19.87;15.07;;;;;;;18.09;100.00;150585.00;5135869;27;20566;-62
2022/10/18 06:23:35;;;;;;;25.80;15.10;;;;;;;18.47;100.00;150679.09;5135261;27;20183;-61
2022/10/18 06:26:03;;;;;;;19.07;14.00;;;;;;;18.52;100.00;150693.16;5135403;27;20187;-62
2022/10/18 06:28:31;;;;;;;15.50;14.27;;;;;;;18.87;100.00;150779.63;5135139;27;20218;-61
2022/10/18 06:30:58;;;;;;;21.07;14.70;;;;;;;19.35;100.00;150901.75;5134943;27;20260;-62
2022/10/18 06:33:25;;;;;;;21.17;14.00;;;;;;;19.72;100.00;150993.47;5135310;27;20190;-61
2022/10/18 06:35:59;;;;;;;17.97;14.20;;;;;;;19.52;100.00;150945.06;5135160;27;20267;-62
2022/10/18 06:38:30;;;;;;;28.27;13.50;;;;;;;19.74;100.00;150998.53;5133488;27;20183;-61
2022/10/18 06:40:58;;;;;;;15.50;13.97;;;;;;;19.61;100.00;150968.00;5135455;27;20645;-61
2022/10/18 06:43:26;;;;;;;16.27;14.40;;;;;;;19.88;100.00;151034.19;5116527;27;20348;-61
2022/10/18 06:45:53;;;;;;;18.87;13.57;;;;;;;19.99;100.00;151062.19;5135157;27;20278;-61
2022/10/18 06:48:21;;;;;;;12.00;10.98;;;;;;;20.43;100.00;151173.00;5135218;27;20186;-62
2022/10/18 06:50:53;;;;;;;13.68;10.73;;;;;;;21.40;100.00;151417.66;5135442;27;20608;-61
2022/10/18 06:53:22;;;;;;;7.13;6.40;;;;;;;21.38;100.00;151413.84;5134721;27;20243;-64
2022/10/18 06:55:53;;;;;;;5.35;4.90;;;;;;;22.73;100.00;151753.06;5134527;27;20187;-61
2022/10/18 06:58:20;;;;;;;12.20;5.07;;;;;;;23.56;100.00;151963.63;5134917;27;20586;-63
2022/10/18 07:00:47;;;;;;;4.60;4.20;;;;;;;24.18;100.00;152118.13;5134647;27;20189;-63
2022/10/18 07:03:14;;;;;;;4.95;4.22;;;;;;;24.01;100.00;152075.97;5134652;27;20195;-61
2022/10/18 07:05:41;;;;;;;3.92;3.72;;;;;;;23.68;100.00;151992.94;5133820;27;20186;-62
2022/10/18 07:08:08;;;;;;;5.53;4.70;;;;;;;24.24;100.00;152133.44;5087741;27;20434;-61
2022/10/18 07:10:40;;;;;;;7.05;4.22;;;;;;;24.43;100.00;152181.97;5105411;27;20218;-62
2022/10/18 07:13:07;;;;;;;5.55;3.85;;;;;;;23.11;100.00;151850.00;5134479;27;20650;-62
2022/10/18 07:15:37;;;;;;;4.57;4.00;;;;;;;22.58;100.00;151714.72;5134374;27;20531;-61
2022/10/18 07:18:04;;;;;;;5.63;3.75;;;;;;;22.99;100.00;151819.41;5134086;27;20190;-62
2022/10/18 07:20:31;;;;;;;6.90;3.80;;;;;;;23.28;100.00;151890.84;5130058;27;20680;-62
2022/10/18 07:22:58;;;;;;;4.00;3.72;;;;;;;23.96;100.00;152064.47;5113614;28;20194;-61
2022/10/18 07:25:25;;;;;;;3.35;3.25;;;;;;;23.52;100.00;151952.13;5113545;28;20180;-61
2022/10/18 07:27:54;;;;;;;5.85;3.33;;;;;;;23.45;100.00;151934.28;5113808;28;20275;-61
2022/10/18 07:30:21;;;;;;;4.07;3.88;;;;;;;23.93;100.00;152055.53;5113247;28;20184;-61
2022/10/18 07:32:48;;;;;;;6.07;3.45;;;;;;;24.37;100.00;152166.63;5113362;28;20188;-60
2022/10/18 07:35:15;;;;;;;3.65;3.42;;;;;;;24.38;100.00;152170.47;5113679;28;20187;-59
2022/10/18 07:37:42;;;;;;;3.65;3.45;;;;;;;24.04;100.00;152083.59;5113194;28;20194;-59
2022/10/18 07:40:11;;;;;;;4.43;3.88;;;;;;;23.73;100.00;152005.72;5113318;28;20189;-61
2022/10/18 07:42:38;;;;;;;6.13;3.58;;;;;;;24.00;100.00;152074.69;5113514;28;20610;-61
2022/10/18 07:45:07;;;;;;;3.85;3.20;;;;;;;24.67;100.00;152241.97;5113246;28;20270;-61
2022/10/18 07:47:34;;;;;;;3.58;3.28;;;;;;;24.41;100.00;152176.84;5113272;28;20192;-61
2022/10/18 07:50:01;;;;;;;4.13;3.42;;;;;;;24.17;100.00;152115.56;5113011;28;20187;-61
2022/10/18 07:52:28;;;;;;;6.95;3.50;;;;;;;23.68;100.00;151992.94;5112972;28;20203;-61
2022/10/18 07:54:55;;;;;;;2.20;2.10;;;;;;;22.82;100.00;151774.75;5112681;28;20194;-61
2022/10/18 07:57:22;;;;;;;3.97;2.47;;;;;;;21.04;100.00;151325.88;5112584;28;20191;-60
2022/10/18 07:59:55;;;;;;;2.60;2.45;;;;;;;19.85;100.00;151026.56;5112848;28;20179;-59
2022/10/18 08:02:23;;;;;;;4.27;2.30;;;;;;;19.35;100.00;150901.75;5112772;28;20180;-59
2022/10/18 08:04:50;;;;;;;2.60;2.40;;;;;;;18.92;100.00;150792.38;5112682;28;20274;-59
2022/10/18 08:07:17;;;;;;;6.80;3.00;;;;;;;18.76;100.00;150751.63;5112524;28;20221;-59
2022/10/18 08:09:44;;;;;;;3.23;2.60;;;;;;;18.80;100.00;150761.84;5112864;28;20633;-59
2022/10/18 08:12:14;;;;;;;3.53;2.60;;;;;;;18.65;100.00;150724.94;5112985;28;20302;-60
2022/10/18 08:14:45;;;;;;;2.40;2.20;;;;;;;18.62;100.00;150718.59;5112639;28;20195;-59
2022/10/18 08:17:12;;;;;;;2.40;2.30;;;;;;;18.60;100.00;150713.50;5112561;28;20205;-58
2022/10/18 08:19:41;;;;;;;2.50;2.40;;;;;;;18.87;100.00;150780.91;5112938;28;20199;-59
2022/10/18 08:22:08;;;;;;;4.07;2.97;;;;;;;18.68;100.00;150733.84;5130472;27;20306;-59
2022/10/18 08:24:35;;;;;;;2.80;2.30;;;;;;;18.75;100.00;150749.13;5132865;27;20193;-59
2022/10/18 08:27:02;;;;;;;2.93;2.67;;;;;;;18.70;100.00;150738.94;5133184;27;20278;-58
2022/10/18 08:29:28;;;;;;;2.50;2.30;;;;;;;18.96;100.00;150803.81;5132733;27;20194;-58
2022/10/18 08:31:55;;;;;;;2.10;2.00;;;;;;;18.85;100.00;150775.81;5133050;27;20789;-59
2022/10/18 08:34:22;;;;;;;3.07;2.57;;;;;;;18.74;100.00;150747.84;5132970;27;20311;-59
2022/10/18 08:36:51;;;;;;;5.27;2.20;;;;;;;18.79;100.00;150760.56;5132690;27;20236;-59
2022/10/18 08:39:18;;;;;;;2.47;2.37;;;;;;;18.53;100.00;150695.72;5132741;27;20273;-60
2022/10/18 08:42:17;;;;;;;4.60;2.43;;;;;;;18.61;100.00;150716.06;5114675;27;20187;-59
2022/10/18 08:44:47;;;;;;;2.27;2.17;;;;;;;18.51;100.00;150690.53;5105240;27;20194;-59
2022/10/18 08:47:17;;;;;;;2.50;2.30;;;;;;;18.63;100.00;150721.13;5133130;27;20269;-60
2022/10/18 08:49:48;;;;;;;3.97;2.60;;;;;;;18.82;100.00;150768.19;5132682;27;20241;-59
2022/10/18 08:52:28;;;;;;;2.63;2.00;;;;;;;20.67;100.00;151232.84;5132782;27;20209;-60
2022/10/18 08:55:02;;;;;;;3.20;1.45;;;;;;;22.04;100.00;151578.28;5133019;27;20183;-60
2022/10/18 08:57:31;;;;;;;1.60;1.50;;;;;;;22.15;100.00;151607.59;5114933;28;20702;-61
2022/10/18 08:59:58;;;;;;;5.70;1.33;;;;;;;23.11;100.00;151850.00;5132553;27;20183;-60
2022/10/18 09:02:40;;;;;;;1.63;1.10;;;;;;;23.88;91.20;152042.75;5131772;28;20232;-61
2022/10/18 09:05:21;;;;;;;3.55;1.10;;;;;;;24.14;90.64;152109.16;5132789;28;20182;-60
2022/10/18 09:08:11;;;;;;;2.20;1.00;;;;;;;23.08;92.84;151842.38;5132389;28;20528;-61
2022/10/18 09:10:45;;;;;;;1.95;1.20;;;;;;;23.34;97.89;151907.41;5132331;28;20265;-60
2022/10/18 09:13:36;;;;;;;4.30;1.67;;;;;;;23.21;100.00;151874.28;5137621;27;20190;-60
2022/10/18 09:16:04;;;;;;;6.55;1.42;;;;;;;23.87;100.00;152041.47;5138744;27;20564;-61
2022/10/18 09:18:46;;;;;;;3.25;1.63;;;;;;;24.75;97.61;152263.69;5146136;27;20186;-61
2022/10/18 09:21:21;;;;;;;2.35;1.30;;;;;;;26.20;82.70;152629.28;5153289;27;20221;-61
2022/10/18 09:23:54;;;;;;;2.75;1.30;;;;;;;25.78;nan;152524.44;5153628;27;20627;-60
2022/10/18 09:26:22;;;;;;;1.60;1.50;;;;;;;25.58;81.92;152473.34;5152977;27;20194;-60
2022/10/18 09:29:05;;;;;;;2.05;1.33;;;;;;;22.54;98.00;151705.81;5153004;27;20610;-59
2022/10/18 09:31:44;;;;;;;9.00;1.85;;;;;;;22.15;100.00;151607.59;5136121;27;20668;-60
2022/10/18 09:34:19;;;;;;;2.30;1.40;;;;;;;22.54;100.00;151705.81;5153484;27;20192;-60
2022/10/18 09:36:47;;;;;;;1.35;1.33;;;;;;;21.86;100.00;151533.63;5153232;27;20182;-60
2022/10/18 09:39:20;;;;;;;1.98;1.40;;;;;;;21.32;100.00;151398.53;5153165;27;20640;-59
2022/10/18 09:41:51;;;;;;;1.33;1.23;;;;;;;21.34;100.00;151403.63;5153394;27;20618;-60
2022/10/18 09:44:22;;;;;;;1.98;1.38;;;;;;;20.73;100.00;151248.16;5153379;27;20236;-60
2022/10/18 09:46:53;;;;;;;2.55;1.38;;;;;;;21.11;100.00;151344.97;5152943;27;20224;-59
2022/10/18 09:49:24;;;;;;;5.10;1.30;;;;;;;21.22;100.00;151373.03;5153815;27;20182;-59
2022/10/18 09:51:54;;;;;;;1.67;1.57;;;;;;;21.17;100.00;151360.34;5153568;27;20736;-61
2022/10/18 09:54:28;;;;;;;2.08;1.80;;;;;;;21.15;100.00;151355.22;5152966;27;20518;-59
2022/10/18 09:57:02;;;;;;;4.68;1.80;;;;;;;20.95;100.00;151304.22;5152987;27;20624;-59
2022/10/18 09:59:36;;;;;;;1.65;1.55;;;;;;;21.42;100.00;151422.75;5152875;27;20190;-61
2022/10/18 10:02:06;;;;;;;2.42;1.75;;;;;;;21.51;100.00;151444.44;5149182;27;20280;-61
2022/10/18 10:04:33;;;;;;;2.17;1.40;;;;;;;21.35;100.00;151404.91;5134784;27;20182;-59
2022/10/18 10:07:02;;;;;;;1.30;1.20;;;;;;;20.45;100.00;151179.38;5153114;27;20651;-60
2022/10/18 10:09:37;;;;;;;2.00;1.02;;;;;;;20.74;100.00;151252.00;5152723;27;20214;-60
2022/10/18 10:12:04;;;;;;;2.90;1.50;;;;;;;21.22;100.00;151373.03;5153355;27;20714;-58
2022/10/18 10:14:43;;;;;;;1.60;1.50;;;;;;;22.32;99.49;151650.97;5137918;27;20190;-59
2022/10/18 10:17:24;;;;;;;1.90;1.80;;;;;;;24.43;82.71;152181.97;5138138;27;20189;-60
2022/10/18 10:19:58;;;;;;;2.17;0.98;;;;;;;25.16;71.55;152367.22;5137460;27;20194;-59
2022/10/18 10:22:32;;;;;;;2.10;1.08;;;;;;;26.07;65.49;152597.28;5155989;27;20667;-59
2022/10/18 10:25:03;;;;;;;3.65;1.50;;;;;;;27.54;58.77;152969.56;5156213;27;20672;-61
2022/10/18 10:27:42;;;;;;;1.67;1.10;;;;;;;27.74;56.47;153018.22;5156187;27;20222;-59
2022/10/18 10:30:23;;;;;;;1.50;1.40;;;;;;;26.96;59.47;152822.44;5155855;27;20575;-60
2022/10/18 10:32:51;;;;;;;1.13;1.02;;;;;;;27.99;55.05;153082.22;5155676;27;20315;-60
2022/10/18 10:35:28;;;;;;;1.38;1.10;;;;;;;27.92;54.45;153064.31;5156022;27;20257;-59
2022/10/18 10:37:54;;;;;;;1.95;1.10;;;;;;;25.44;63.89;152437.50;5156040;27;20644;-60
2022/10/18 10:40:25;;;;;;;1.15;1.08;;;;;;;25.30;67.35;152401.69;5156104;27;20182;-59
2022/10/18 10:43:05;;;;;;;2.47;1.52;;;;;;;24.52;70.86;152206.25;5155722;27;20186;-59
2022/10/18 10:45:35;;;;;;;4.10;1.15;;;;;;;23.87;77.18;152041.47;5155471;27;20234;-59
2022/10/18 10:48:07;;;;;;;3.20;1.40;;;;;;;23.15;83.49;151858.94;5155397;27;20204;-59
2022/10/18 10:50:51;;;;;;;3.40;1.50;;;;;;;23.16;86.74;151862.78;5155634;27;20650;-59
2022/10/18 10:53:28;;;;;;;2.45;1.20;;;;;;;23.79;80.08;152021.06;5155234;27;20205;-59
2022/10/18 10:55:58;;;;;;;4.38;1.67;;;;;;;22.96;84.88;151811.72;5155196;27;20184;-59
2022/10/18 10:58:28;;;;;;;1.38;1.27;;;;;;;22.44;88.97;151679.03;5136487;27;20189;-59
2022/10/18 11:00:57;;;;;;;2.38;1.30;;;;;;;22.59;90.78;151717.28;5155213;27;20188;-59
2022/10/18 11:03:24;;;;;;;1.20;1.20;;;;;;;22.59;89.74;151717.28;5155601;27;20607;-58
2022/10/18 11:05:54;;;;;;;1.77;1.50;;;;;;;22.33;92.01;151653.53;5155511;27;20186;-60
2022/10/18 11:08:25;;;;;;;1.55;1.45;;;;;;;22.47;93.19;151686.69;5155037;27;20181;-60
2022/10/18 11:11:09;;;;;;;3.33;1.92;;;;;;;22.01;99.36;151570.66;5155307;27;20627;-59
2022/10/18 11:13:49;;;;;;;1.83;1.52;;;;;;;21.50;100.00;151441.88;5155150;27;20241;-59
2022/10/18 11:16:24;;;;;;;3.08;1.60;;;;;;;21.41;100.00;151421.50;5155397;27;20182;-60
2022/10/18 11:18:55;;;;;;;1.42;1.35;;;;;;;21.53;100.00;151449.50;5155266;27;20185;-60
2022/10/18 11:21:26;;;;;;;2.33;1.40;;;;;;;21.64;100.00;151478.81;5154850;27;20588;-59
2022/10/18 11:23:55;;;;;;;4.95;1.95;;;;;;;21.65;100.00;151481.38;5154084;27;20193;-61
2022/10/18 11:26:49;;;;;;;1.80;1.70;;;;;;;20.99;100.00;151314.41;5154826;27;20182;-59
2022/10/18 11:29:35;;;;;;;1.40;1.30;;;;;;;20.42;100.00;151171.72;5153725;27;20194;-59